createdAt,value
2024-04-12T00:01:41.604Z,102142.97
2024-04-12T00:04:17.219Z,102147.28
2024-04-12T00:06:51.169Z,102148.94
2024-04-12T00:09:22.363Z,102154.94
2024-04-12T00:11:51.582Z,102153.19
2024-04-12T00:14:23.396Z,102158.38
2024-04-12T00:16:53.681Z,102156.63
2024-04-12T00:19:25.257Z,102155.75
2024-04-12T00:21:58.288Z,102163.53
2024-04-12T00:24:31.170Z,102165.22
2024-04-12T00:27:00.523Z,102166.97
2024-04-12T00:29:38.605Z,102173.81
2024-04-12T00:32:15.618Z,102166.03
2024-04-12T00:34:49.950Z,102167.75
2024-04-12T00:37:22.807Z,102172.03
2024-04-12T00:39:55.690Z,102173.69
2024-04-12T00:42:28.337Z,102165.91
2024-04-12T00:45:00.087Z,102164.25
2024-04-12T00:47:29.634Z,102170.25
2024-04-12T00:50:01.941Z,102162.44
2024-04-12T00:52:35.371Z,102158.94
2024-04-12T00:55:08.787Z,102163.22
2024-04-12T00:57:38.336Z,102159.72
2024-04-12T01:00:10.878Z,102161.41
2024-04-12T01:02:41.371Z,102165.75
2024-04-12T01:05:13.592Z,102155.38
2024-04-12T01:07:51.351Z,102153.53
2024-04-12T01:10:25.773Z,102156.94
2024-04-12T01:12:57.027Z,102158.56
2024-04-12T01:15:30.822Z,102174.97
2024-04-12T01:17:58.534Z,102174.06
2024-04-12T01:20:29.156Z,102169.69
2024-04-12T01:22:59.660Z,102170.53
2024-04-12T01:25:33.423Z,102170.44
2024-04-12T01:28:04.187Z,102164.41
2024-04-12T01:30:36.428Z,102167.78
2024-04-12T01:33:08.033Z,102169.47
2024-04-12T01:35:38.149Z,102169.47
2024-04-12T01:38:19.619Z,102167.72
2024-04-12T01:41:06.615Z,102172.91
2024-04-12T01:43:37.508Z,102168.56
2024-04-12T01:46:09.385Z,102162.50
2024-04-12T01:48:37.500Z,102165.91
2024-04-12T01:51:15.034Z,102161.56
2024-04-12T01:53:43.201Z,102164.97
2024-04-12T01:56:15.962Z,102169.22
2024-04-12T01:58:44.124Z,102175.28
2024-04-12T02:01:17.671Z,102168.34
2024-04-12T02:03:45.259Z,102175.22
2024-04-12T02:06:18.135Z,102165.72
2024-04-12T02:08:46.066Z,102175.19
2024-04-12T02:11:25.054Z,102162.22
2024-04-12T02:13:53.997Z,102151.00
2024-04-12T02:16:23.855Z,102152.75
2024-04-12T02:18:51.127Z,102162.19
2024-04-12T02:21:21.064Z,102170.91
2024-04-12T02:23:50.288Z,102172.59
2024-04-12T02:26:24.564Z,102174.31
2024-04-12T02:28:53.378Z,102166.47
2024-04-12T02:31:23.962Z,102160.44
2024-04-12T02:36:22.685Z,102167.38
2024-04-12T02:38:52.183Z,102172.59
2024-04-12T02:41:24.889Z,102172.63
2024-04-12T02:43:56.527Z,102175.22
2024-04-12T02:46:28.373Z,102164.84
2024-04-12T02:48:55.757Z,102170.03
2024-04-12T02:51:25.703Z,102171.78
2024-04-12T02:53:59.544Z,102173.50
2024-04-12T02:56:35.010Z,102177.78
2024-04-12T02:59:03.010Z,102191.63
2024-04-12T03:01:34.427Z,102182.13
2024-04-12T03:04:01.740Z,102188.19
2024-04-12T03:06:34.963Z,102186.47
2024-04-12T03:09:03.394Z,102182.94
2024-04-12T03:11:39.389Z,102182.94
2024-04-12T03:14:11.181Z,102181.16
2024-04-12T03:16:44.035Z,102177.72
2024-04-12T03:19:14.632Z,102187.19
2024-04-12T03:21:45.072Z,102190.59
2024-04-12T03:24:13.019Z,102182.81
2024-04-12T03:26:48.821Z,102184.56
2024-04-12T03:29:18.488Z,102181.06
2024-04-12T03:31:49.373Z,102178.47
2024-04-12T03:34:16.837Z,102172.47
2024-04-12T03:37:17.829Z,102172.44
2024-04-12T03:39:48.801Z,102170.69
2024-04-12T03:42:21.395Z,102167.25
2024-04-12T03:44:50.206Z,102162.94
2024-04-12T03:47:20.387Z,102155.16
2024-04-12T03:49:52.389Z,102161.25
2024-04-12T03:52:24.076Z,102169.03
2024-04-12T03:54:54.762Z,102158.56
2024-04-12T03:57:28.500Z,102157.75
2024-04-12T04:00:00.237Z,102155.16
2024-04-12T04:02:31.437Z,102161.13
2024-04-12T04:05:15.468Z,102165.44
2024-04-12T04:07:48.013Z,102169.72
2024-04-12T04:10:22.249Z,102175.81
2024-04-12T04:12:52.089Z,102169.69
2024-04-12T04:15:26.720Z,102165.38
2024-04-12T04:17:55.696Z,102180.06
2024-04-12T04:20:29.339Z,102180.06
2024-04-12T04:23:04.810Z,102181.81
2024-04-12T04:25:34.803Z,102183.53
2024-04-12T04:28:11.305Z,102183.47
2024-04-12T04:30:42.328Z,102180.03
2024-04-12T04:33:13.993Z,102171.34
2024-04-12T04:35:46.519Z,102166.13
2024-04-12T04:38:18.322Z,102172.94
2024-04-12T04:40:53.700Z,102166.84
2024-04-12T04:43:24.875Z,102178.09
2024-04-12T04:45:54.714Z,102173.66
2024-04-12T04:48:23.990Z,102182.34
2024-04-12T04:50:54.041Z,102187.53
2024-04-12T04:53:21.844Z,102180.63
2024-04-12T04:55:54.911Z,102187.56
2024-04-12T04:58:26.474Z,102199.69
2024-04-12T05:00:56.914Z,102206.63
2024-04-12T05:03:26.939Z,102186.72
2024-04-12T05:05:55.133Z,102172.00
2024-04-12T05:08:25.155Z,102163.41
2024-04-12T05:10:54.496Z,102170.25
2024-04-12T05:13:31.596Z,102166.72
2024-04-12T05:15:59.527Z,102169.31
2024-04-12T05:18:29.658Z,102171.03
2024-04-12T05:20:59.318Z,102183.97
2024-04-12T05:23:30.315Z,102190.81
2024-04-12T05:25:57.784Z,102181.25
2024-04-12T05:28:30.727Z,102177.81
2024-04-12T05:30:58.621Z,102194.22
2024-04-12T05:33:31.578Z,102179.53
2024-04-12T05:35:59.074Z,102174.31
2024-04-12T05:38:28.943Z,102180.34
2024-04-12T05:40:58.896Z,102184.69
2024-04-12T05:43:32.303Z,102190.81
2024-04-12T05:46:00.355Z,102189.91
2024-04-12T05:48:31.632Z,102189.97
2024-04-12T05:50:59.867Z,102192.63
2024-04-12T05:53:34.077Z,102190.13
2024-04-12T05:56:20.280Z,102187.56
2024-04-12T05:58:54.031Z,102185.91
2024-04-12T06:01:21.393Z,102176.47
2024-04-12T06:03:56.171Z,102170.44
2024-04-12T06:06:24.619Z,102171.31
2024-04-12T06:08:56.038Z,102180.03
2024-04-12T06:11:23.684Z,102178.31
2024-04-12T06:13:57.080Z,102174.88
2024-04-12T06:16:25.223Z,102177.56
2024-04-12T06:18:59.849Z,102182.81
2024-04-12T06:21:32.827Z,102184.69
2024-04-12T06:24:11.080Z,102197.72
2024-04-12T06:26:42.408Z,102190.88
2024-04-12T06:29:26.432Z,102191.88
2024-04-12T06:32:02.521Z,102173.00
2024-04-12T06:34:29.806Z,102163.72
2024-04-12T06:37:07.730Z,102159.53
2024-04-12T06:39:35.700Z,102168.25
2024-04-12T06:42:10.686Z,102176.16
2024-04-12T06:44:43.722Z,102164.03
2024-04-12T06:47:14.872Z,102164.00
2024-04-12T06:49:46.762Z,102164.81
2024-04-12T06:52:22.473Z,102182.97
2024-04-12T06:54:50.077Z,102182.97
2024-04-12T06:57:23.983Z,102181.47
2024-04-12T06:59:56.404Z,102188.63
2024-04-12T07:02:28.467Z,102176.50
2024-04-12T07:04:56.803Z,102187.66
2024-04-12T07:07:30.301Z,102182.41
2024-04-12T07:10:03.389Z,102174.53
2024-04-12T07:12:34.320Z,102183.19
2024-04-12T07:15:12.227Z,102181.38
2024-04-12T07:17:43.286Z,102183.09
2024-04-12T07:20:25.950Z,102191.09
2024-04-12T07:22:57.208Z,102194.84
2024-04-12T07:25:25.108Z,102192.53
2024-04-12T07:27:55.413Z,102185.97
2024-04-12T07:30:28.626Z,102184.69
2024-04-12T07:32:58.688Z,102185.88
2024-04-12T07:35:27.810Z,102172.13
2024-04-12T07:38:03.817Z,102170.53
2024-04-12T07:40:36.781Z,102163.66
2024-04-12T07:43:11.232Z,102175.78
2024-04-12T07:45:42.137Z,102182.78
2024-04-12T07:48:33.168Z,102178.78
2024-04-12T07:51:06.429Z,102174.88
2024-04-12T07:53:37.457Z,102185.88
2024-04-12T07:56:18.350Z,102193.47
2024-04-12T07:59:02.919Z,102184.91
2024-04-12T08:01:35.709Z,102182.19
2024-04-12T08:04:07.588Z,102188.22
2024-04-12T08:06:57.660Z,102179.44
2024-04-12T08:09:35.958Z,102175.97
2024-04-12T08:12:15.234Z,102181.34
2024-04-12T08:14:53.816Z,102171.03
2024-04-12T08:17:29.595Z,102174.78
2024-04-12T08:20:02.480Z,102173.31
2024-04-12T08:22:34.907Z,102157.22
2024-04-12T08:25:04.104Z,102150.56
2024-04-12T08:27:36.434Z,102142.16
2024-04-12T08:30:15.177Z,102144.09
2024-04-12T08:32:50.633Z,102140.66
2024-04-12T08:35:21.910Z,102140.66
2024-04-12T08:37:55.238Z,102147.00
2024-04-12T08:40:26.950Z,102137.34
2024-04-12T08:43:11.597Z,102145.84
2024-04-12T08:45:44.668Z,102157.16
2024-04-12T08:48:19.077Z,102168.94
2024-04-12T08:50:50.083Z,102161.72
2024-04-12T08:53:22.789Z,102172.91
2024-04-12T08:55:50.839Z,102178.81
2024-04-12T08:58:25.603Z,102177.84
2024-04-12T09:00:55.495Z,102173.47
2024-04-12T09:03:36.909Z,102164.78
2024-04-12T09:06:05.521Z,102164.78
2024-04-12T09:08:42.652Z,102153.53
2024-04-12T09:11:10.691Z,102155.31
2024-04-12T09:13:42.996Z,102150.22
2024-04-12T09:16:12.543Z,102161.66
2024-04-12T09:18:49.093Z,102151.41
2024-04-12T09:21:26.401Z,102153.34
2024-04-12T09:23:58.713Z,102165.38
2024-04-12T09:26:27.102Z,102164.50
2024-04-12T09:29:11.106Z,102174.25
2024-04-12T09:32:12.967Z,102165.50
2024-04-12T09:34:57.700Z,102174.88
2024-04-12T09:37:40.534Z,102177.38
2024-04-12T09:40:29.719Z,102189.22
2024-04-12T09:43:16.970Z,102186.31
2024-04-12T09:45:50.679Z,102200.16
2024-04-12T09:48:38.367Z,102189.66
2024-04-12T09:51:27.194Z,102194.75
2024-04-12T09:54:13.174Z,102188.63
2024-04-12T09:57:02.692Z,102180.25
2024-04-12T09:59:50.188Z,102181.19
2024-04-12T10:02:48.821Z,102183.78
2024-04-12T10:05:37.089Z,102177.69
2024-04-12T10:08:31.866Z,102176.16
2024-04-12T10:11:19.970Z,102175.25
2024-04-12T10:14:06.839Z,102170.69
2024-04-12T10:16:58.718Z,102168.84
2024-04-12T10:19:44.596Z,102163.72
2024-04-12T10:22:31.580Z,102170.81
2024-04-12T10:25:22.150Z,102170.84
2024-04-12T10:28:10.014Z,102156.56
2024-04-12T10:31:05.689Z,102144.09
2024-04-12T10:34:06.817Z,102136.66
2024-04-12T10:36:53.094Z,102129.72
2024-04-12T10:39:31.877Z,102129.75
2024-04-12T10:42:06.830Z,102139.53
2024-04-12T10:44:36.878Z,102133.66
2024-04-12T10:47:06.940Z,102136.69
2024-04-12T10:49:34.613Z,102137.84
2024-04-12T10:52:05.355Z,102125.19
2024-04-12T10:54:34.168Z,102127.13
2024-04-12T10:57:08.585Z,102127.38
2024-04-12T10:59:36.681Z,102130.16
2024-04-12T11:02:06.757Z,102139.66
2024-04-12T11:04:58.074Z,102142.31
2024-04-12T11:07:29.846Z,102135.28
2024-04-12T11:09:59.501Z,102132.66
2024-04-12T11:12:41.727Z,102137.00
2024-04-12T11:15:34.106Z,102143.19
2024-04-12T11:18:21.178Z,102144.13
2024-04-12T11:21:14.075Z,102148.44
2024-04-12T11:24:12.219Z,102149.34
2024-04-12T11:27:04.691Z,102160.59
2024-04-12T11:29:57.434Z,102154.28
2024-04-12T11:32:27.777Z,102160.22
2024-04-12T11:34:58.928Z,102141.09
2024-04-12T11:37:30.048Z,102135.91
2024-04-12T11:40:04.999Z,102135.97
2024-04-12T11:42:34.431Z,102143.91
2024-04-12T11:45:07.238Z,102140.56
2024-04-12T11:47:34.635Z,102145.97
2024-04-12T11:50:11.746Z,102144.28
2024-04-12T11:52:39.646Z,102144.38
2024-04-12T11:55:13.581Z,102139.06
2024-04-12T11:57:42.914Z,102152.13
2024-04-12T12:00:20.186Z,102164.28
2024-04-12T12:02:47.661Z,102151.03
2024-04-12T12:05:19.271Z,102149.13
2024-04-12T12:07:47.702Z,102148.97
2024-04-12T12:10:18.217Z,102139.41
2024-04-12T12:12:45.631Z,102143.66
2024-04-12T12:15:21.374Z,102156.56
2024-04-12T12:17:49.036Z,102152.00
2024-04-12T12:20:19.813Z,102152.81
2024-04-12T12:22:48.966Z,102141.31
2024-04-12T12:25:19.954Z,102127.53
2024-04-12T12:27:47.192Z,102132.19
2024-04-12T12:30:20.830Z,102142.94
2024-04-12T12:32:51.133Z,102132.63
2024-04-12T12:35:24.404Z,102136.97
2024-04-12T12:37:52.603Z,102136.94
2024-04-12T12:40:23.279Z,102129.84
2024-04-12T12:42:53.797Z,102124.78
2024-04-12T12:45:29.382Z,102116.22
2024-04-12T12:47:56.813Z,102114.56
2024-04-12T12:50:27.540Z,102111.13
2024-04-12T12:52:54.921Z,102111.13
2024-04-12T12:55:25.952Z,102112.00
2024-04-12T12:58:10.918Z,102081.53
2024-04-12T13:00:46.426Z,102077.25
2024-04-12T13:03:19.233Z,102065.00
2024-04-12T13:05:50.347Z,102066.78
2024-04-12T13:08:18.037Z,102072.88
2024-04-12T13:10:50.387Z,102062.38
2024-04-12T13:13:22.953Z,102053.59
2024-04-12T13:15:59.645Z,102061.50
2024-04-12T13:18:29.314Z,102057.97
2024-04-12T13:21:00.540Z,102051.00
2024-04-12T13:23:28.495Z,102058.03
2024-04-12T13:25:59.232Z,102038.78
2024-04-12T13:28:31.136Z,102021.28
2024-04-12T13:31:04.241Z,102009.06
2024-04-12T13:33:31.527Z,102010.81
2024-04-12T13:36:01.894Z,102016.13
2024-04-12T13:38:31.861Z,102003.03
2024-04-12T13:41:03.354Z,102003.03
2024-04-12T13:43:33.090Z,101994.34
2024-04-12T13:46:21.605Z,101994.34
2024-04-12T13:49:07.457Z,101988.25
2024-04-12T13:51:41.290Z,101990.00
2024-04-12T13:54:15.364Z,101984.72
2024-04-12T13:56:46.419Z,102006.53
2024-04-12T13:59:13.782Z,102022.25
2024-04-12T14:01:47.468Z,102004.75
2024-04-12T14:04:19.988Z,102005.63
2024-04-12T14:06:52.087Z,102006.47
2024-04-12T14:09:24.477Z,102006.47
2024-04-12T14:11:55.580Z,102019.53
2024-04-12T14:14:24.356Z,102023.88
2024-04-12T14:16:56.914Z,102012.53
2024-04-12T14:19:24.179Z,102002.94
2024-04-12T14:21:55.677Z,101995.06
2024-04-12T14:24:42.003Z,101996.72
2024-04-12T14:27:13.371Z,102007.22
2024-04-12T14:29:40.915Z,102009.81
2024-04-12T14:32:17.170Z,102008.16
2024-04-12T14:34:51.763Z,102015.19
2024-04-12T14:37:29.822Z,102010.81
2024-04-12T14:39:57.033Z,102002.97
2024-04-12T14:42:26.934Z,102003.88
2024-04-12T14:44:55.065Z,102009.09
2024-04-12T14:47:29.273Z,101999.41
2024-04-12T14:49:56.565Z,101994.97
2024-04-12T14:52:26.388Z,101990.56
2024-04-12T14:54:55.099Z,102013.91
2024-04-12T14:57:24.995Z,102018.88
2024-04-12T14:59:52.283Z,102031.38
2024-04-12T15:02:22.732Z,102015.91
2024-04-12T15:05:11.045Z,102013.34
2024-04-12T15:07:57.075Z,102008.81
2024-04-12T15:10:42.679Z,102005.34
2024-04-12T15:13:28.551Z,102023.81
2024-04-12T15:16:14.137Z,102026.50
2024-04-12T15:19:00.078Z,102030.94
2024-04-12T15:21:48.426Z,102045.81
2024-04-12T15:24:33.974Z,102042.31
2024-04-12T15:27:19.921Z,102052.75
2024-04-12T15:30:05.928Z,102055.31
2024-04-12T15:32:51.437Z,102061.34
2024-04-12T15:35:37.337Z,102049.13
2024-04-12T15:38:25.813Z,102052.59
2024-04-12T15:41:11.882Z,102063.84
2024-04-12T15:43:57.328Z,102060.31
2024-04-12T15:46:45.947Z,102069.72
2024-04-12T15:49:30.999Z,102034.78
2024-04-12T15:52:02.232Z,102002.66
2024-04-12T15:54:36.768Z,101980.19
2024-04-12T15:57:22.693Z,101965.44
2024-04-12T16:00:08.546Z,101938.47
2024-04-12T16:02:53.684Z,101933.22
2024-04-12T16:05:39.526Z,101914.88
2024-04-12T16:08:25.517Z,101910.44
2024-04-12T16:10:58.067Z,101896.47
2024-04-12T16:13:28.118Z,101907.84
2024-04-12T16:15:58.657Z,101930.63
2024-04-12T16:18:29.989Z,101949.84
2024-04-12T16:20:57.327Z,101971.56
2024-04-12T16:23:28.739Z,101979.41
2024-04-12T16:26:03.669Z,101968.09
2024-04-12T16:28:36.096Z,101984.75
2024-04-12T16:31:06.058Z,101978.56
2024-04-12T16:33:37.111Z,101970.69
2024-04-12T16:36:05.290Z,101980.19
2024-04-12T16:38:35.610Z,101985.41
2024-04-12T16:41:05.581Z,101976.69
2024-04-12T16:43:36.819Z,101978.34
2024-04-12T16:46:04.928Z,101960.09
2024-04-12T16:48:35.533Z,101969.63
2024-04-12T16:51:02.992Z,101968.72
2024-04-12T16:53:33.480Z,101963.59
2024-04-12T16:56:00.752Z,101981.09
2024-04-12T16:58:33.315Z,101981.09
2024-04-12T17:01:00.583Z,101962.88
2024-04-12T17:03:30.726Z,101964.69
2024-04-12T17:05:58.130Z,101976.88
2024-04-12T17:08:28.153Z,101976.88
2024-04-12T17:10:55.514Z,101996.09
2024-04-12T17:13:26.043Z,101993.41
2024-04-12T17:18:35.019Z,101992.50
2024-04-12T17:21:04.824Z,101998.59
2024-04-12T17:23:34.773Z,102009.06
2024-04-12T17:26:05.207Z,101999.47
2024-04-12T17:28:35.229Z,102011.66
2024-04-12T17:31:02.758Z,101999.47
2024-04-12T17:33:35.629Z,102002.97
2024-04-12T17:36:07.247Z,102008.22
2024-04-12T17:38:42.935Z,102010.72
2024-04-12T17:41:10.215Z,102003.66
2024-04-12T17:43:45.303Z,102020.22
2024-04-12T17:46:12.641Z,102023.56
2024-04-12T17:48:45.233Z,102006.09
2024-04-12T17:51:12.572Z,102010.41
2024-04-12T17:53:42.677Z,102023.41
2024-04-12T17:56:10.359Z,102019.81
2024-04-12T17:58:40.218Z,102028.47
2024-04-12T18:01:07.626Z,102020.56
2024-04-12T18:03:39.295Z,102016.13
2024-04-12T18:06:10.374Z,102025.56
2024-04-12T18:08:40.323Z,102026.34
2024-04-12T18:11:09.821Z,102020.97
2024-04-12T18:13:40.468Z,102008.75
2024-04-12T18:16:07.913Z,102020.03
2024-04-12T18:18:38.077Z,102009.56
2024-04-12T18:21:10.122Z,102010.34
2024-04-12T18:23:44.206Z,102003.22
2024-04-12T18:26:13.653Z,102013.53
2024-04-12T18:28:44.135Z,102004.81
2024-04-12T18:31:12.416Z,102007.31
2024-04-12T18:33:42.712Z,102016.75
2024-04-12T18:36:22.493Z,102014.94
2024-04-12T18:39:08.299Z,102016.63
2024-04-12T18:41:55.789Z,102018.31
2024-04-12T18:44:42.297Z,102019.97
2024-04-12T18:47:12.196Z,102018.06
2024-04-12T18:49:42.042Z,102011.78
2024-04-12T18:52:15.338Z,102024.63
2024-04-12T18:54:45.182Z,102021.06
2024-04-12T18:57:13.599Z,102033.97
2024-04-12T18:59:43.559Z,102026.22
2024-04-12T19:02:10.785Z,102020.13
2024-04-12T19:04:41.626Z,102007.91
2024-04-12T19:07:12.876Z,102014.72
2024-04-12T19:09:43.591Z,102018.03
2024-04-12T19:12:11.189Z,102020.41
2024-04-12T19:14:42.821Z,102029.72
2024-04-12T19:17:10.183Z,102024.34
2024-04-12T19:19:40.125Z,102028.63
2024-04-12T19:22:08.122Z,102035.56
2024-04-12T19:24:40.688Z,102026.09
2024-04-12T19:27:08.041Z,102024.25
2024-04-12T19:29:38.351Z,102030.16
2024-04-12T19:32:06.708Z,102036.00
2024-04-12T19:34:37.695Z,102037.69
2024-04-12T19:37:05.873Z,102049.81
2024-04-12T19:39:36.572Z,102049.81
2024-04-12T19:42:08.774Z,102048.13
2024-04-12T19:44:40.929Z,102045.56
2024-04-12T19:47:08.677Z,102055.19
2024-04-12T19:49:38.660Z,102055.25
2024-04-12T19:52:06.075Z,102057.00
2024-04-12T19:54:36.255Z,102052.66
2024-04-12T19:57:07.236Z,102053.56
2024-04-12T19:59:37.125Z,102053.50
2024-04-12T20:02:04.651Z,102046.59
2024-04-12T20:04:34.985Z,102044.78
2024-04-12T20:07:02.227Z,102046.38
2024-04-12T20:09:36.998Z,102054.06
2024-04-12T20:12:08.042Z,102056.53
2024-04-12T20:14:38.012Z,102064.28
2024-04-12T20:17:05.926Z,102058.09
2024-04-12T20:19:36.082Z,102044.88
2024-04-12T20:22:05.367Z,102062.88
2024-04-12T20:24:36.301Z,102057.53
2024-04-12T20:27:03.758Z,102050.56
2024-04-12T20:29:36.306Z,102043.72
2024-04-12T20:32:24.351Z,102041.13
2024-04-12T20:35:20.161Z,102041.97
2024-04-12T20:37:47.444Z,102040.09
2024-04-12T20:40:17.445Z,102039.06
2024-04-12T20:42:44.617Z,102035.59
2024-04-12T20:45:17.553Z,102039.97
2024-04-12T20:47:44.820Z,102033.81
2024-04-12T20:50:14.791Z,102032.88
2024-04-12T20:52:42.005Z,102029.25
2024-04-12T20:55:13.955Z,102034.34
2024-04-12T20:57:41.453Z,102030.03
2024-04-12T21:00:16.821Z,102035.16
2024-04-12T21:02:47.904Z,102034.28
2024-04-12T21:05:17.980Z,102036.06
2024-04-12T21:07:44.996Z,102036.09
2024-04-12T21:10:14.892Z,102029.06
2024-04-12T21:12:42.354Z,102044.53
2024-04-12T21:15:12.330Z,102039.94
2024-04-12T21:17:40.615Z,102043.22
2024-04-12T21:20:16.645Z,102038.72
2024-04-12T21:22:46.654Z,102043.00
2024-04-12T21:25:14.000Z,102050.69
2024-04-12T21:27:43.876Z,102048.09
2024-04-12T21:30:12.343Z,102050.59
2024-04-12T21:32:43.005Z,102058.38
2024-04-12T21:35:13.006Z,102054.91
2024-04-12T21:37:44.134Z,102057.59
2024-04-12T21:40:11.437Z,102059.38
2024-04-12T21:42:41.292Z,102061.16
2024-04-12T21:45:08.716Z,102057.78
2024-04-12T21:47:39.102Z,102062.22
2024-04-12T21:50:07.310Z,102060.59
2024-04-12T21:52:39.854Z,102064.19
2024-04-12T21:55:09.027Z,102067.78
2024-04-12T21:57:45.122Z,102068.69
2024-04-12T22:00:17.971Z,102073.06
2024-04-12T22:02:48.791Z,102061.00
2024-04-12T22:05:16.194Z,102059.28
2024-04-12T22:07:48.668Z,102072.25
2024-04-12T22:10:18.664Z,102074.00
2024-04-12T22:12:48.633Z,102071.44
2024-04-12T22:15:15.872Z,102074.84
2024-04-12T22:17:45.776Z,102073.16
2024-04-12T22:20:13.390Z,102077.47
2024-04-12T22:22:43.275Z,102073.19
2024-04-12T22:25:13.164Z,102069.75
2024-04-12T22:27:43.016Z,102081.00
2024-04-12T22:30:11.591Z,102071.44
2024-04-12T22:32:41.575Z,102064.47
2024-04-12T22:35:09.367Z,102073.19
2024-04-12T22:37:39.262Z,102071.44
2024-04-12T22:40:07.817Z,102078.38
2024-04-12T22:42:40.475Z,102074.94
2024-04-12T22:45:08.505Z,102065.38
2024-04-12T22:47:38.644Z,102079.19
2024-04-12T22:50:07.720Z,102073.03
2024-04-12T22:52:37.710Z,102073.06
2024-04-12T22:55:07.891Z,102069.63
2024-04-12T22:57:44.500Z,102067.03
2024-04-12T23:00:13.553Z,102064.34
2024-04-12T23:02:43.606Z,102062.59
2024-04-12T23:07:41.579Z,102072.09
2024-04-12T23:10:08.883Z,102060.81
2024-04-12T23:12:41.500Z,102053.00
2024-04-12T23:15:09.003Z,102050.31
2024-04-12T23:17:41.707Z,102045.88
2024-04-12T23:20:10.764Z,102049.22
2024-04-12T23:22:40.763Z,102047.34
2024-04-12T23:25:08.262Z,102047.25
2024-04-12T23:27:38.272Z,102047.28
2024-04-12T23:30:09.449Z,102047.34
2024-04-12T23:32:39.364Z,102038.66
2024-04-12T23:35:09.889Z,102030.84
2024-04-12T23:37:39.866Z,102037.63
2024-04-12T23:40:10.077Z,102044.41
2024-04-12T23:42:40.731Z,102037.44
2024-04-12T23:45:10.709Z,102034.03
2024-04-12T23:47:40.744Z,102028.94
2024-04-12T23:50:08.204Z,102034.13
2024-04-12T23:52:38.282Z,102040.16
2024-04-12T23:55:11.026Z,102030.63
2024-04-12T23:57:41.143Z,102039.31
